createdAt,value
2018-12-18T00:01:29.046Z,98.69
2018-12-18T00:03:54.854Z,97.73
2018-12-18T00:06:20.578Z,98.05
2018-12-18T00:08:46.503Z,98.84
2018-12-18T00:11:12.239Z,98.86
2018-12-18T00:13:38.055Z,98.12
2018-12-18T00:16:03.970Z,98.79
2018-12-18T00:18:29.686Z,97.96
2018-12-18T00:20:56.054Z,97.82
2018-12-18T00:23:22.010Z,98.78
2018-12-18T00:25:47.727Z,97.82
2018-12-18T00:28:14.340Z,97.87
2018-12-18T00:30:42.451Z,97.87
2018-12-18T00:33:08.394Z,98.80
2018-12-18T00:35:34.120Z,98.81
2018-12-18T00:38:01.374Z,97.98
2018-12-18T00:40:27.100Z,98.36
2018-12-18T00:42:52.818Z,98.13
2018-12-18T00:45:18.646Z,98.06
2018-12-18T00:47:44.586Z,98.12
2018-12-18T00:50:10.517Z,98.25
2018-12-18T00:52:37.453Z,98.75
2018-12-18T00:55:05.045Z,99.11
2018-12-18T00:57:30.762Z,98.13
2018-12-18T00:59:56.482Z,98.19
2018-12-18T01:02:22.330Z,98.73
2018-12-18T01:04:48.049Z,97.99
2018-12-18T01:07:13.982Z,98.43
2018-12-18T01:09:39.690Z,98.87
2018-12-18T01:12:06.320Z,98.68
2018-12-18T01:14:32.048Z,99.01
2018-12-18T01:16:57.767Z,98.08
2018-12-18T01:19:23.486Z,98.99
2018-12-18T01:21:49.204Z,98.60
2018-12-18T01:24:15.039Z,99.44
2018-12-18T01:26:40.747Z,99.54
2018-12-18T01:29:06.475Z,99.51
2018-12-18T01:31:34.491Z,99.73
2018-12-18T01:34:00.226Z,99.63
2018-12-18T01:36:25.938Z,98.86
2018-12-18T01:38:51.658Z,99.03
2018-12-18T01:41:17.362Z,98.82
2018-12-18T01:43:43.178Z,99.50
2018-12-18T01:46:08.897Z,99.46
2018-12-18T01:48:34.615Z,98.79
2018-12-18T01:51:00.327Z,99.59
2018-12-18T01:53:26.048Z,98.68
2018-12-18T01:55:51.763Z,99.52
2018-12-18T01:58:17.588Z,99.03
2018-12-18T02:00:43.308Z,98.85
2018-12-18T02:03:09.188Z,98.65
2018-12-18T02:05:34.994Z,99.14
2018-12-18T02:08:00.712Z,98.70
2018-12-18T02:10:26.548Z,98.73
2018-12-18T02:12:52.266Z,99.54
2018-12-18T02:15:18.069Z,99.54
2018-12-18T02:17:43.790Z,99.41
2018-12-18T02:20:09.509Z,99.18
2018-12-18T02:22:35.362Z,99.56
2018-12-18T02:25:01.189Z,99.46
2018-12-18T02:27:26.895Z,99.50
2018-12-18T02:29:52.615Z,99.49
2018-12-18T02:32:18.343Z,98.99
2018-12-18T02:34:44.172Z,98.89
2018-12-18T02:37:09.879Z,98.89
2018-12-18T02:39:35.599Z,99.18
2018-12-18T02:42:01.466Z,99.25
2018-12-18T02:44:27.198Z,98.73
2018-12-18T02:46:53.025Z,98.95
2018-12-18T02:49:18.746Z,99.11
2018-12-18T02:51:44.465Z,99.15
2018-12-18T02:54:10.292Z,98.76
2018-12-18T02:56:36.012Z,98.83
2018-12-18T02:59:01.842Z,99.00
2018-12-18T03:01:27.676Z,98.81
2018-12-18T03:03:53.523Z,98.74
2018-12-18T03:06:19.334Z,99.48
2018-12-18T03:08:45.082Z,98.98
2018-12-18T03:11:12.923Z,99.60
2018-12-18T03:13:38.639Z,98.79
2018-12-18T03:16:04.463Z,98.46
2018-12-18T03:18:30.176Z,98.67
2018-12-18T03:20:55.894Z,99.27
2018-12-18T03:23:21.598Z,99.01
2018-12-18T03:25:47.411Z,99.12
2018-12-18T03:28:13.114Z,99.55
2018-12-18T03:30:38.888Z,98.90
2018-12-18T03:33:04.729Z,98.37
2018-12-18T03:35:30.455Z,98.72
2018-12-18T03:37:56.169Z,98.64
2018-12-18T03:40:21.999Z,98.71
2018-12-18T03:42:47.811Z,99.33
2018-12-18T03:45:13.649Z,98.84
2018-12-18T03:47:39.357Z,99.12
2018-12-18T03:50:05.293Z,99.41
2018-12-18T03:52:31.110Z,99.58
2018-12-18T03:54:56.822Z,99.47
2018-12-18T03:57:22.530Z,99.50
2018-12-18T03:59:48.267Z,98.69
2018-12-18T04:02:13.985Z,98.55
2018-12-18T04:04:39.695Z,98.79
2018-12-18T04:07:05.413Z,98.56
2018-12-18T04:09:31.151Z,98.76
2018-12-18T04:12:03.208Z,99.49
2018-12-18T04:14:28.929Z,99.39
2018-12-18T04:16:54.755Z,98.72
2018-12-18T04:19:20.570Z,99.54
2018-12-18T04:21:46.318Z,98.74
2018-12-18T04:24:12.115Z,98.78
2018-12-18T04:26:37.991Z,99.63
2018-12-18T04:29:03.710Z,99.09
2018-12-18T04:31:29.433Z,99.10
2018-12-18T04:33:55.146Z,98.86
2018-12-18T04:36:20.882Z,98.70
2018-12-18T04:38:46.592Z,99.67
2018-12-18T04:41:12.519Z,99.69
2018-12-18T04:43:38.296Z,99.24
2018-12-18T04:46:04.200Z,99.35
2018-12-18T04:48:30.057Z,98.98
2018-12-18T04:50:55.894Z,98.84
2018-12-18T04:53:21.738Z,99.59
2018-12-18T04:55:47.476Z,99.40
2018-12-18T04:58:13.216Z,99.22
2018-12-18T05:00:39.043Z,99.62
2018-12-18T05:03:04.783Z,98.83
2018-12-18T05:05:30.639Z,98.84
2018-12-18T05:07:56.386Z,99.53
2018-12-18T05:10:22.149Z,99.51
2018-12-18T05:12:47.878Z,98.85
2018-12-18T05:15:13.602Z,99.39
2018-12-18T05:17:39.323Z,98.71
2018-12-18T05:20:05.061Z,98.82
2018-12-18T05:22:30.811Z,98.78
2018-12-18T05:24:56.550Z,98.87
2018-12-18T05:27:22.470Z,99.55
2018-12-18T05:29:48.278Z,99.09
2018-12-18T05:32:14.210Z,98.78
2018-12-18T05:34:39.957Z,99.54
2018-12-18T05:37:05.804Z,99.46
2018-12-18T05:39:31.633Z,99.08
2018-12-18T05:41:57.371Z,99.57
2018-12-18T05:44:23.092Z,99.37
2018-12-18T05:46:48.825Z,99.47
2018-12-18T05:49:14.667Z,99.03
2018-12-18T05:51:40.412Z,98.69
2018-12-18T05:54:06.161Z,98.71
2018-12-18T05:56:31.878Z,98.74
2018-12-18T05:58:57.707Z,98.61
2018-12-18T06:01:23.540Z,98.97
2018-12-18T06:03:49.271Z,98.41
2018-12-18T06:06:15.092Z,98.64
2018-12-18T06:08:40.839Z,99.46
2018-12-18T06:11:06.566Z,98.93
2018-12-18T06:13:32.307Z,98.91
2018-12-18T06:15:58.042Z,98.56
2018-12-18T06:18:23.771Z,98.60
2018-12-18T06:20:49.494Z,99.54
2018-12-18T06:23:15.234Z,98.47
2018-12-18T06:25:41.067Z,99.33
2018-12-18T06:28:06.798Z,98.39
2018-12-18T06:30:32.515Z,99.15
2018-12-18T06:32:58.250Z,99.03
2018-12-18T06:35:24.000Z,98.85
2018-12-18T06:37:49.786Z,98.80
2018-12-18T06:40:15.534Z,99.10
2018-12-18T06:42:41.267Z,98.41
2018-12-18T06:45:07.105Z,98.13
2018-12-18T06:47:32.947Z,98.30
2018-12-18T06:49:58.686Z,98.76
2018-12-18T06:52:24.427Z,98.40
2018-12-18T06:54:50.164Z,99.21
2018-12-18T06:57:15.886Z,98.21
2018-12-18T06:59:41.735Z,98.24
2018-12-18T07:02:07.470Z,99.31
2018-12-18T07:04:33.207Z,98.47
2018-12-18T07:06:58.938Z,98.54
2018-12-18T07:09:24.682Z,98.45
2018-12-18T07:11:50.409Z,99.01
2018-12-18T07:14:16.149Z,98.34
2018-12-18T07:16:41.894Z,98.57
2018-12-18T07:19:07.732Z,98.22
2018-12-18T07:21:33.472Z,98.83
2018-12-18T07:23:59.195Z,98.11
2018-12-18T07:26:24.944Z,99.08
2018-12-18T07:28:50.783Z,98.11
2018-12-18T07:31:16.619Z,98.99
2018-12-18T07:33:42.447Z,98.76
2018-12-18T07:36:08.174Z,99.14
2018-12-18T07:38:33.911Z,97.93
2018-12-18T07:40:59.662Z,98.85
2018-12-18T07:43:25.399Z,98.33
2018-12-18T07:45:51.251Z,98.10
2018-12-18T07:48:16.987Z,98.80
2018-12-18T07:50:42.815Z,98.08
2018-12-18T07:53:08.538Z,98.77
2018-12-18T07:55:34.421Z,98.10
2018-12-18T07:58:00.219Z,97.93
2018-12-18T08:00:26.054Z,98.37
2018-12-18T08:02:51.779Z,98.41
2018-12-18T08:05:17.723Z,97.73
2018-12-18T08:07:43.547Z,97.93
2018-12-18T08:10:09.284Z,98.17
2018-12-18T08:12:35.038Z,98.83
2018-12-18T08:15:00.872Z,98.54
2018-12-18T08:17:26.601Z,98.15
2018-12-18T08:19:52.543Z,98.30
2018-12-18T08:22:18.258Z,98.07
2018-12-18T08:24:44.054Z,98.52
2018-12-18T08:27:10.018Z,98.49
2018-12-18T08:29:35.937Z,98.97
2018-12-18T08:32:01.938Z,98.42
2018-12-18T08:34:27.674Z,98.16
2018-12-18T08:36:53.377Z,98.93
2018-12-18T08:39:19.100Z,98.97
2018-12-18T08:41:44.822Z,98.08
2018-12-18T08:44:10.686Z,98.72
2018-12-18T08:46:36.440Z,97.99
2018-12-18T08:49:02.299Z,98.37
2018-12-18T08:51:28.204Z,98.07
2018-12-18T08:53:54.056Z,98.44
2018-12-18T08:56:19.766Z,98.83
2018-12-18T08:58:45.506Z,98.15
2018-12-18T09:01:11.365Z,98.92
2018-12-18T09:03:37.065Z,98.44
2018-12-18T09:06:02.981Z,99.11
2018-12-18T09:08:28.726Z,98.73
2018-12-18T09:10:54.442Z,98.20
2018-12-18T09:13:20.158Z,99.07
2018-12-18T09:15:52.005Z,98.83
2018-12-18T09:18:17.819Z,97.94
2018-12-18T09:20:43.536Z,98.82
2018-12-18T09:23:09.355Z,98.42
2018-12-18T09:25:35.074Z,98.49
2018-12-18T09:28:00.893Z,98.10
2018-12-18T09:30:26.611Z,98.06
2018-12-18T09:32:52.311Z,98.89
2018-12-18T09:35:18.131Z,98.71
2018-12-18T09:37:43.854Z,97.80
2018-12-18T09:40:09.785Z,98.09
2018-12-18T09:45:35.015Z,99.09
2018-12-18T09:48:00.723Z,98.56
2018-12-18T09:50:26.450Z,98.97
2018-12-18T09:52:52.182Z,97.71
2018-12-18T09:55:17.905Z,98.69
2018-12-18T09:58:00.957Z,98.62
2018-12-18T10:00:26.705Z,97.94
2018-12-18T10:02:52.539Z,98.73
2018-12-18T10:05:18.306Z,98.03
2018-12-18T10:07:51.066Z,97.66
2018-12-18T10:10:16.881Z,97.40
2018-12-18T10:12:42.893Z,98.45
2018-12-18T10:15:08.718Z,98.24
2018-12-18T10:17:34.426Z,97.32
2018-12-18T10:20:00.159Z,97.31
2018-12-18T10:22:25.880Z,98.10
2018-12-18T10:24:51.698Z,97.36
2018-12-18T10:27:17.525Z,97.18
2018-12-18T10:29:43.338Z,97.04
2018-12-18T10:32:09.062Z,96.99
2018-12-18T10:34:34.779Z,97.35
2018-12-18T10:37:00.506Z,96.92
2018-12-18T10:39:26.323Z,97.54
2018-12-18T10:41:52.056Z,97.63
2018-12-18T10:44:17.771Z,97.01
2018-12-18T10:46:43.494Z,97.69
2018-12-18T10:49:09.208Z,97.79
2018-12-18T10:51:35.026Z,97.43
2018-12-18T10:54:00.834Z,96.87
2018-12-18T10:56:26.543Z,97.39
2018-12-18T10:58:52.251Z,96.77
2018-12-18T11:01:24.094Z,97.26
2018-12-18T11:03:49.802Z,97.36
2018-12-18T11:06:15.523Z,97.04
2018-12-18T11:08:41.233Z,96.46
2018-12-18T11:11:06.963Z,96.87
2018-12-18T11:13:32.684Z,97.30
2018-12-18T11:15:58.385Z,97.03
2018-12-18T11:18:24.105Z,97.12
2018-12-18T11:20:49.934Z,96.22
2018-12-18T11:23:15.762Z,96.39
2018-12-18T11:25:41.482Z,97.18
2018-12-18T11:28:07.307Z,96.15
2018-12-18T11:30:33.127Z,96.36
2018-12-18T11:32:58.954Z,96.45
2018-12-18T11:35:24.674Z,97.22
2018-12-18T11:37:50.396Z,96.30
2018-12-18T11:40:16.210Z,97.13
2018-12-18T11:42:41.941Z,97.07
2018-12-18T11:45:07.779Z,96.46
2018-12-18T11:47:33.491Z,96.86
2018-12-18T11:49:59.193Z,96.68
2018-12-18T11:52:25.025Z,96.69
2018-12-18T11:54:50.738Z,95.66
2018-12-18T11:57:16.476Z,95.63
2018-12-18T11:59:42.184Z,96.82
2018-12-18T12:02:07.998Z,96.34
2018-12-18T12:04:33.726Z,94.82
2018-12-18T12:06:59.469Z,95.28
2018-12-18T12:09:25.335Z,95.50
2018-12-18T12:11:51.122Z,95.37
2018-12-18T12:14:16.854Z,94.86
2018-12-18T12:16:42.567Z,95.13
2018-12-18T12:19:08.299Z,94.08
2018-12-18T12:21:34.018Z,94.31
2018-12-18T12:23:59.735Z,94.14
2018-12-18T12:26:31.535Z,94.84
2018-12-18T12:28:57.350Z,94.64
2018-12-18T12:31:23.070Z,94.79
2018-12-18T12:33:48.794Z,94.76
2018-12-18T12:36:14.623Z,94.86
2018-12-18T12:38:40.362Z,93.79
2018-12-18T12:41:06.106Z,94.64
2018-12-18T12:43:31.844Z,94.29
2018-12-18T12:45:57.766Z,94.72
2018-12-18T12:48:25.757Z,94.10
2018-12-18T12:50:51.482Z,95.05
2018-12-18T12:53:17.571Z,94.74
2018-12-18T12:55:43.335Z,93.91
2018-12-18T12:58:09.039Z,94.84
2018-12-18T13:00:34.866Z,95.06
2018-12-18T13:03:07.491Z,95.01
2018-12-18T13:05:40.291Z,94.87
2018-12-18T13:08:06.027Z,94.16
2018-12-18T13:10:31.747Z,94.31
2018-12-18T13:12:57.450Z,94.98
2018-12-18T13:15:23.182Z,94.98
2018-12-18T13:17:48.905Z,94.71
2018-12-18T13:20:17.450Z,94.03
2018-12-18T13:22:43.852Z,94.34
2018-12-18T13:25:09.818Z,94.13
2018-12-18T13:27:35.526Z,94.58
2018-12-18T13:30:01.286Z,93.97
2018-12-18T13:32:27.266Z,94.40
2018-12-18T13:34:54.337Z,94.26
2018-12-18T13:37:20.119Z,93.71
2018-12-18T13:39:45.874Z,94.29
2018-12-18T13:42:11.583Z,94.17
2018-12-18T13:44:37.394Z,94.15
2018-12-18T13:47:03.211Z,94.66
2018-12-18T13:49:28.923Z,93.81
2018-12-18T13:51:54.641Z,93.68
2018-12-18T13:54:20.367Z,93.72
2018-12-18T13:56:46.070Z,94.78
2018-12-18T13:59:18.825Z,94.86
2018-12-18T14:01:44.655Z,94.97
2018-12-18T14:04:10.386Z,94.16
2018-12-18T14:06:36.121Z,95.14
2018-12-18T14:09:02.654Z,95.55
2018-12-18T14:11:28.378Z,95.24
2018-12-18T14:13:54.181Z,95.10
2018-12-18T14:16:19.898Z,95.38
2018-12-18T14:18:46.861Z,95.58
2018-12-18T14:21:13.934Z,95.96
2018-12-18T14:23:39.669Z,95.12
2018-12-18T14:26:05.690Z,95.81
2018-12-18T14:28:31.425Z,94.84
2018-12-18T14:30:57.237Z,95.77
2018-12-18T14:33:23.464Z,95.76
2018-12-18T14:35:49.339Z,95.93
2018-12-18T14:38:15.053Z,95.18
2018-12-18T14:40:40.769Z,95.21
2018-12-18T14:43:06.540Z,94.95
2018-12-18T14:45:32.455Z,96.16
2018-12-18T14:47:58.352Z,95.69
2018-12-18T14:50:24.110Z,96.22
2018-12-18T14:52:49.854Z,95.86
2018-12-18T14:55:15.575Z,95.99
2018-12-18T14:57:41.424Z,96.68
2018-12-18T15:00:07.494Z,96.99
2018-12-18T15:02:33.206Z,96.76
2018-12-18T15:04:58.931Z,96.56
2018-12-18T15:07:24.663Z,96.19
2018-12-18T15:09:50.447Z,97.11
2018-12-18T15:12:16.256Z,96.65
2018-12-18T15:14:42.018Z,96.36
2018-12-18T15:17:07.847Z,96.62
2018-12-18T15:19:40.509Z,96.64
2018-12-18T15:22:13.185Z,96.84
2018-12-18T15:24:39.018Z,97.19
2018-12-18T15:27:04.778Z,97.46
2018-12-18T15:29:30.589Z,97.39
2018-12-18T15:31:56.303Z,97.57
2018-12-18T15:34:22.151Z,96.96
2018-12-18T15:36:47.992Z,97.33
2018-12-18T15:39:13.702Z,96.41
2018-12-18T15:41:39.418Z,96.74
2018-12-18T15:44:05.167Z,97.02
2018-12-18T15:46:30.912Z,97.12
2018-12-18T15:48:56.634Z,96.75
2018-12-18T15:51:22.346Z,96.87
2018-12-18T15:53:48.054Z,96.66
2018-12-18T15:56:13.813Z,95.96
2018-12-18T15:58:39.521Z,95.69
2018-12-18T16:01:05.346Z,95.65
2018-12-18T16:03:31.068Z,96.09
2018-12-18T16:05:56.896Z,96.13
2018-12-18T16:08:22.609Z,96.04
2018-12-18T16:10:48.328Z,95.05
2018-12-18T16:13:14.026Z,94.89
2018-12-18T16:15:39.796Z,95.55
2018-12-18T16:18:05.512Z,94.88
2018-12-18T16:20:31.231Z,94.01
2018-12-18T16:22:57.047Z,94.59
2018-12-18T16:25:23.954Z,94.53
2018-12-18T16:27:49.675Z,93.86
2018-12-18T16:30:15.569Z,94.51
2018-12-18T16:32:41.365Z,94.00
2018-12-18T16:35:07.165Z,94.85
2018-12-18T16:37:33.047Z,93.98
2018-12-18T16:42:31.308Z,94.02
2018-12-18T16:44:57.119Z,94.82
2018-12-18T16:47:22.951Z,94.42
2018-12-18T16:49:48.656Z,94.89
2018-12-18T16:52:14.386Z,94.02
2018-12-18T16:54:40.312Z,94.34
2018-12-18T16:57:06.249Z,94.16
2018-12-18T16:59:32.168Z,93.46
2018-12-18T17:01:58.002Z,93.78
2018-12-18T17:04:23.823Z,94.41
2018-12-18T17:06:49.650Z,94.24
2018-12-18T17:09:15.366Z,94.22
2018-12-18T17:11:48.192Z,94.09
2018-12-18T17:14:13.999Z,93.59
2018-12-18T17:16:39.780Z,94.07
2018-12-18T17:19:05.571Z,94.28
2018-12-18T17:21:31.475Z,93.68
2018-12-18T17:23:57.237Z,93.33
2018-12-18T17:26:23.138Z,93.97
2018-12-18T17:28:49.060Z,94.06
2018-12-18T17:31:14.793Z,93.21
2018-12-18T17:33:40.607Z,92.90
2018-12-18T17:36:06.338Z,93.24
2018-12-18T17:38:32.965Z,93.21
2018-12-18T17:40:58.787Z,93.26
2018-12-18T17:43:25.014Z,94.01
2018-12-18T17:45:57.959Z,93.89
2018-12-18T17:48:23.695Z,93.81
2018-12-18T17:50:49.505Z,94.03
2018-12-18T17:53:15.218Z,93.98
2018-12-18T17:55:40.918Z,93.39
2018-12-18T17:58:06.647Z,93.61
2018-12-18T18:00:32.420Z,93.25
2018-12-18T18:02:58.188Z,93.76
2018-12-18T18:05:23.964Z,93.17
2018-12-18T18:07:49.700Z,93.79
2018-12-18T18:10:15.411Z,94.15
2018-12-18T18:12:41.141Z,93.31
2018-12-18T18:15:06.954Z,93.52
2018-12-18T18:17:32.675Z,93.55
2018-12-18T18:19:58.909Z,93.52
2018-12-18T18:22:24.747Z,93.68
2018-12-18T18:24:50.676Z,94.34
2018-12-18T18:27:16.399Z,93.49
2018-12-18T18:29:42.101Z,93.76
2018-12-18T18:32:07.873Z,94.07
2018-12-18T18:34:33.614Z,93.60
2018-12-18T18:36:59.432Z,93.25
2018-12-18T18:39:25.170Z,94.04
2018-12-18T18:41:51.005Z,94.37
2018-12-18T18:44:16.730Z,94.32
2018-12-18T18:46:42.466Z,93.61
2018-12-18T18:49:08.182Z,93.05
2018-12-18T18:51:33.911Z,92.79
2018-12-18T18:53:59.638Z,93.76
2018-12-18T18:56:25.670Z,93.23
2018-12-18T18:58:51.521Z,93.61
2018-12-18T19:01:17.259Z,94.29
2018-12-18T19:03:43.082Z,94.32
2018-12-18T19:06:08.941Z,94.20
2018-12-18T19:08:34.786Z,93.72
2018-12-18T19:11:00.521Z,94.49
2018-12-18T19:13:26.257Z,94.63
2018-12-18T19:15:51.982Z,93.81
2018-12-18T19:18:17.719Z,94.09
2018-12-18T19:20:43.440Z,94.14
2018-12-18T19:23:09.260Z,95.24
2018-12-18T19:25:34.986Z,94.33
2018-12-18T19:28:00.697Z,95.14
2018-12-18T19:30:26.427Z,94.31
2018-12-18T19:32:52.151Z,95.31
2018-12-18T19:35:17.869Z,94.54
2018-12-18T19:37:43.680Z,95.46
2018-12-18T19:40:09.423Z,95.08
2018-12-18T19:42:35.364Z,95.18
2018-12-18T19:45:01.312Z,94.80
2018-12-18T19:47:27.035Z,95.45
2018-12-18T19:49:52.975Z,94.50
2018-12-18T19:52:18.782Z,95.56
2018-12-18T19:54:44.509Z,95.22
2018-12-18T19:57:10.218Z,94.67
2018-12-18T19:59:35.953Z,94.43
2018-12-18T20:02:01.788Z,94.73
2018-12-18T20:04:34.686Z,95.66
2018-12-18T20:07:00.425Z,95.59
2018-12-18T20:09:26.263Z,95.28
2018-12-18T20:11:51.983Z,95.48
2018-12-18T20:14:17.718Z,95.42
2018-12-18T20:16:43.543Z,95.45
2018-12-18T20:19:09.390Z,94.42
2018-12-18T20:21:35.210Z,95.61
2018-12-18T20:24:00.919Z,95.53
2018-12-18T20:26:26.635Z,95.25
2018-12-18T20:28:52.457Z,94.79
2018-12-18T20:31:18.185Z,95.44
2018-12-18T20:33:43.891Z,94.85
2018-12-18T20:36:09.618Z,95.12
2018-12-18T20:38:35.338Z,94.93
2018-12-18T20:41:01.170Z,96.02
2018-12-18T20:43:26.890Z,96.08
2018-12-18T20:45:52.614Z,95.12
2018-12-18T20:48:18.425Z,95.69
2018-12-18T20:50:44.146Z,95.25
2018-12-18T20:53:09.959Z,96.09
2018-12-18T20:55:35.692Z,95.31
2018-12-18T20:58:01.401Z,96.08
2018-12-18T21:00:27.127Z,95.52
2018-12-18T21:02:52.835Z,95.86
2018-12-18T21:05:18.787Z,95.31
2018-12-18T21:07:44.934Z,96.31
2018-12-18T21:10:10.871Z,96.18
2018-12-18T21:12:36.690Z,95.63
2018-12-18T21:15:03.020Z,95.63
2018-12-18T21:17:28.830Z,96.58
2018-12-18T21:19:54.614Z,95.94
2018-12-18T21:22:20.402Z,96.19
2018-12-18T21:24:46.201Z,95.53
2018-12-18T21:27:12.011Z,97.01
2018-12-18T21:29:37.815Z,96.18
2018-12-18T21:32:03.731Z,96.57
2018-12-18T21:34:29.523Z,96.35
2018-12-18T21:36:55.422Z,97.22
2018-12-18T21:39:21.230Z,96.51
2018-12-18T21:41:47.031Z,96.28
2018-12-18T21:44:12.826Z,97.11
2018-12-18T21:46:38.639Z,96.91
2018-12-18T21:49:04.435Z,97.11
2018-12-18T21:51:30.230Z,97.06
2018-12-18T21:53:56.037Z,96.67
2018-12-18T21:56:21.823Z,96.67
2018-12-18T21:58:47.727Z,97.31
2018-12-18T22:01:13.506Z,96.64
2018-12-18T22:03:39.298Z,97.45
2018-12-18T22:06:05.090Z,96.97
2018-12-18T22:08:36.721Z,96.27
2018-12-18T22:10:58.690Z,97.23
2018-12-18T22:13:24.492Z,96.46
2018-12-18T22:15:50.295Z,97.32
2018-12-18T22:18:16.102Z,96.31
2018-12-18T22:20:41.895Z,96.94
2018-12-18T22:23:07.694Z,96.15
2018-12-18T22:25:36.487Z,95.98
2018-12-18T22:28:02.423Z,95.54
2018-12-18T22:30:28.150Z,95.69
2018-12-18T22:32:53.862Z,95.84
2018-12-18T22:35:19.586Z,96.43
2018-12-18T22:37:45.324Z,95.78
2018-12-18T22:40:11.042Z,96.72
2018-12-18T22:42:36.780Z,96.30
2018-12-18T22:45:02.911Z,95.69
2018-12-18T22:47:28.650Z,95.66
2018-12-18T22:49:54.382Z,96.47
2018-12-18T22:52:20.102Z,95.87
2018-12-18T22:54:45.827Z,96.45
2018-12-18T22:57:11.646Z,96.13
2018-12-18T22:59:37.378Z,95.66
2018-12-18T23:02:05.210Z,95.89
2018-12-18T23:04:31.350Z,96.55
2018-12-18T23:06:57.079Z,96.36
2018-12-18T23:09:22.814Z,96.22
2018-12-18T23:11:48.690Z,95.64
2018-12-18T23:14:14.434Z,95.81
2018-12-18T23:16:40.153Z,96.46
2018-12-18T23:19:05.996Z,96.24
2018-12-18T23:21:31.938Z,95.90
2018-12-18T23:23:57.761Z,95.39
2018-12-18T23:26:24.295Z,96.46
2018-12-18T23:28:50.013Z,95.58
2018-12-18T23:31:15.835Z,95.92
2018-12-18T23:33:41.554Z,95.40
2018-12-18T23:36:07.281Z,95.46
2018-12-18T23:38:33.007Z,96.18
2018-12-18T23:40:58.831Z,95.80
2018-12-18T23:43:24.761Z,95.65
2018-12-18T23:45:50.495Z,96.39
2018-12-18T23:48:16.422Z,96.31
2018-12-18T23:50:42.252Z,95.46
2018-12-18T23:53:07.970Z,95.46
2018-12-18T23:55:33.682Z,95.77
2018-12-18T23:57:59.403Z,95.77
